Time;durP1;ratioP1;P1;durP2;ratioP2;P2;SDS_P1;SDS_P2;PMS_P1;PMS_P2;Temp;Humidity;BMP_temperature;BMP_pressure;BME280_temperature;BME280_humidity;BME280_pressure;Samples;Min_cycle;Max_cycle;Signal;HPM_P1;HPM_P2
2022/09/09 00:02:16;;;;;;;14.38;8.52;;;;;;;-145.67;100.00;66521.78;4928561;28;20031;-65
2022/09/09 00:04:46;;;;;;;15.25;7.85;;;;;;;-145.67;100.00;66521.78;4926261;28;20031;-66
2022/09/09 00:07:23;;;;;;;15.98;8.65;;;;;;;-145.67;100.00;66521.78;4942276;28;20051;-65
2022/09/09 00:10:00;;;;;;;17.45;10.15;;;;;;;-145.67;100.00;66521.78;4942633;28;20392;-65
2022/09/09 00:12:41;;;;;;;19.23;10.75;;;;;;;-145.67;100.00;66521.78;4943831;28;20058;-66
2022/09/09 00:15:16;;;;;;;22.48;11.15;;;;;;;-145.67;100.00;66521.78;4942818;28;20126;-65
2022/09/09 00:18:16;;;;;;;17.45;9.13;;;;;;;-145.67;100.00;66521.78;4942566;28;20265;-65
2022/09/09 00:20:47;;;;;;;18.25;9.32;;;;;;;-145.67;100.00;66521.78;4926473;28;20653;-66
2022/09/09 00:23:19;;;;;;;18.27;9.93;;;;;;;-145.67;100.00;66521.78;4943578;28;20424;-66
2022/09/09 00:25:57;;;;;;;22.50;10.82;;;;;;;-145.67;100.00;66521.78;4922107;28;20105;-66
2022/09/09 00:28:26;;;;;;;15.00;8.30;;;;;;;-145.67;100.00;66521.78;4938827;28;20073;-66
2022/09/09 00:30:52;;;;;;;15.85;8.45;;;;;;;-145.67;100.00;66521.78;4943588;28;20039;-65
2022/09/09 00:33:22;;;;;;;20.17;10.07;;;;;;;-145.67;100.00;66521.78;4916060;28;20039;-66
2022/09/09 00:35:54;;;;;;;20.40;11.32;;;;;;;-145.67;100.00;66521.78;4941753;28;20519;-67
2022/09/09 00:38:37;;;;;;;16.77;9.63;;;;;;;-145.67;100.00;66521.78;4927138;28;20035;-66
2022/09/09 00:41:13;;;;;;;16.55;9.63;;;;;;;-145.67;100.00;66521.78;4926777;28;20062;-66
2022/09/09 00:43:41;;;;;;;22.02;12.30;;;;;;;-145.67;100.00;66521.78;4942791;28;21828;-65
2022/09/09 00:46:32;;;;;;;18.77;11.10;;;;;;;-145.67;100.00;66521.78;4913625;28;20038;-66
2022/09/09 00:49:00;;;;;;;19.88;10.90;;;;;;;-145.67;100.00;66521.78;4929189;28;20050;-66
2022/09/09 00:51:46;;;;;;;20.38;12.38;;;;;;;-145.67;100.00;66521.78;4941358;28;20035;-66
2022/09/09 00:54:23;;;;;;;21.17;11.50;;;;;;;-145.67;100.00;66521.78;4944011;28;20038;-66
2022/09/09 00:57:20;;;;;;;20.13;10.88;;;;;;;-145.67;100.00;66521.78;4942212;28;20056;-67
2022/09/09 00:59:51;;;;;;;26.15;12.35;;;;;;;-145.67;100.00;66521.78;4943584;28;20049;-66
2022/09/09 01:03:02;;;;;;;25.35;15.57;;;;;;;-145.67;100.00;66521.78;4942094;28;20133;-66
2022/09/09 01:05:33;;;;;;;32.15;17.38;;;;;;;-145.67;100.00;66521.78;4915760;28;20042;-66
2022/09/09 01:08:02;;;;;;;23.77;14.00;;;;;;;-145.67;100.00;66521.78;4942784;28;20516;-65
2022/09/09 01:10:43;;;;;;;28.48;15.38;;;;;;;-145.67;100.00;66521.78;4921512;28;20038;-65
2022/09/09 01:13:19;;;;;;;35.47;20.20;;;;;;;-145.67;100.00;66521.78;4920505;28;20127;-66
2022/09/09 01:15:46;;;;;;;35.13;17.55;;;;;;;-145.67;100.00;66521.78;4897809;28;20039;-66
2022/09/09 01:18:17;;;;;;;27.38;15.73;;;;;;;-145.67;100.00;66521.78;4938247;28;20043;-67
2022/09/09 01:20:58;;;;;;;32.10;18.63;;;;;;;-145.67;100.00;66521.78;4927381;28;20420;-66
2022/09/09 01:23:42;;;;;;;32.67;18.27;;;;;;;-145.67;100.00;66521.78;4924847;28;20138;-66
2022/09/09 01:26:22;;;;;;;22.50;15.10;;;;;;;-145.67;100.00;66521.78;4924598;28;20073;-65
2022/09/09 01:28:52;;;;;;;26.33;14.45;;;;;;;-145.67;100.00;66521.78;4925282;28;20077;-66
2022/09/09 01:31:33;;;;;;;29.92;17.52;;;;;;;-145.67;100.00;66521.78;4920226;28;20508;-67
2022/09/09 01:33:58;;;;;;;27.80;15.70;;;;;;;-145.67;100.00;66521.78;4916833;28;20059;-66
2022/09/09 01:36:25;;;;;;;24.40;15.00;;;;;;;-145.67;100.00;66521.78;4925008;28;21863;-65
2022/09/09 01:38:53;;;;;;;31.48;17.70;;;;;;;-145.67;100.00;66521.78;4941860;28;20110;-65
2022/09/09 01:41:19;;;;;;;31.83;20.23;;;;;;;-145.67;100.00;66521.78;4941045;28;20335;-66
2022/09/09 01:43:47;;;;;;;40.03;20.02;;;;;;;-145.67;100.00;66521.78;4942148;28;20089;-66
2022/09/09 01:46:16;;;;;;;45.37;22.93;;;;;;;-145.67;100.00;66521.78;4940586;28;20031;-65
2022/09/09 01:48:45;;;;;;;50.67;28.55;;;;;;;-145.67;100.00;66521.78;4940491;28;20066;-67
2022/09/09 01:51:13;;;;;;;55.28;31.27;;;;;;;-145.67;100.00;66521.78;4941396;28;20600;-65
2022/09/09 01:53:40;;;;;;;59.67;27.83;;;;;;;-145.67;100.00;66521.78;4941979;28;20141;-65
2022/09/09 01:56:21;;;;;;;43.35;22.50;;;;;;;-145.67;100.00;66521.78;4917633;28;20043;-66
2022/09/09 01:59:06;;;;;;;35.00;19.77;;;;;;;-145.67;100.00;66521.78;4923020;28;20050;-66
2022/09/09 02:01:42;;;;;;;32.55;17.80;;;;;;;-145.67;100.00;66521.78;4902905;29;20071;-66
2022/09/09 02:04:27;;;;;;;32.80;18.83;;;;;;;-145.67;100.00;66521.78;4902871;28;20042;-66
2022/09/09 02:06:56;;;;;;;36.70;19.67;;;;;;;-145.67;100.00;66521.78;4925106;28;20090;-66
2022/09/09 02:09:24;;;;;;;34.33;20.60;;;;;;;-145.67;100.00;66521.78;4927378;28;20047;-66
2022/09/09 02:12:08;;;;;;;38.08;23.38;;;;;;;-145.67;100.00;66521.78;4926257;28;20169;-67
2022/09/09 02:14:43;;;;;;;36.78;22.88;;;;;;;-145.67;100.00;66521.78;4941594;28;20046;-66
2022/09/09 02:17:10;;;;;;;40.53;23.80;;;;;;;-145.67;100.00;66521.78;4927189;28;20095;-66
2022/09/09 02:19:50;;;;;;;37.50;23.52;;;;;;;-145.67;100.00;66521.78;4941148;28;20046;-65
2022/09/09 02:22:17;;;;;;;42.40;22.13;;;;;;;-145.67;100.00;66521.78;4941245;28;21808;-66
2022/09/09 02:24:46;;;;;;;37.33;22.30;;;;;;;-145.67;100.00;66521.78;4913392;28;20046;-65
2022/09/09 02:27:14;;;;;;;36.00;21.08;;;;;;;-145.67;100.00;66521.78;4926892;28;20063;-65
2022/09/09 02:29:41;;;;;;;45.28;25.90;;;;;;;-145.67;100.00;66521.78;4926973;28;20097;-65
2022/09/09 02:32:12;;;;;;;45.60;27.33;;;;;;;-145.67;100.00;66521.78;4940847;28;20046;-65
2022/09/09 02:34:44;;;;;;;37.67;21.95;;;;;;;-145.67;100.00;66521.78;4920516;28;20066;-66
2022/09/09 02:37:16;;;;;;;38.85;21.38;;;;;;;-145.67;100.00;66521.78;4940938;28;20043;-66
2022/09/09 02:39:45;;;;;;;36.05;19.42;;;;;;;-145.67;100.00;66521.78;4925871;28;20241;-65
2022/09/09 02:42:10;;;;;;;31.77;18.33;;;;;;;-145.67;100.00;66521.78;4926772;28;20043;-65
2022/09/09 02:44:37;;;;;;;34.40;18.63;;;;;;;-145.67;100.00;66521.78;4927363;28;20318;-65
2022/09/09 02:47:17;;;;;;;30.85;17.98;;;;;;;-145.67;100.00;66521.78;4927123;28;20035;-66
2022/09/09 02:49:49;;;;;;;34.20;19.10;;;;;;;-145.67;100.00;66521.78;4926523;28;20067;-65
2022/09/09 02:52:16;;;;;;;34.15;18.38;;;;;;;-145.67;100.00;66521.78;4926540;28;20110;-64
2022/09/09 02:54:44;;;;;;;31.20;18.17;;;;;;;-145.67;100.00;66521.78;4940679;28;21337;-65
2022/09/09 02:57:21;;;;;;;29.83;16.13;;;;;;;-145.67;100.00;66521.78;4940306;28;20062;-65
2022/09/09 02:59:47;;;;;;;29.92;18.45;;;;;;;-145.67;100.00;66521.78;4928868;28;20539;-65
2022/09/09 03:02:12;;;;;;;30.88;18.85;;;;;;;-145.67;100.00;66521.78;4920174;28;20028;-65
2022/09/09 03:04:41;;;;;;;35.20;19.75;;;;;;;-145.67;100.00;66521.78;4925756;28;20130;-66
2022/09/09 03:07:09;;;;;;;41.03;22.15;;;;;;;-145.67;100.00;66521.78;4926227;28;20178;-68
2022/09/09 03:09:37;;;;;;;34.53;19.05;;;;;;;-145.67;100.00;66521.78;4940436;28;20039;-65
2022/09/09 03:12:04;;;;;;;34.20;20.17;;;;;;;-145.67;100.00;66521.78;4926641;28;20367;-65
2022/09/09 03:14:32;;;;;;;37.63;22.13;;;;;;;-145.67;100.00;66521.78;4925047;28;20066;-65
2022/09/09 03:17:00;;;;;;;36.38;22.15;;;;;;;-145.67;100.00;66521.78;4924676;28;20485;-66
2022/09/09 03:19:27;;;;;;;34.60;20.90;;;;;;;-145.67;100.00;66521.78;4939977;28;20118;-65
2022/09/09 03:21:55;;;;;;;31.77;19.17;;;;;;;-145.67;100.00;66521.78;4925257;28;20031;-65
2022/09/09 03:24:21;;;;;;;34.88;19.88;;;;;;;-145.67;100.00;66521.78;4926718;28;20452;-65
2022/09/09 03:26:46;;;;;;;34.40;18.60;;;;;;;-145.67;100.00;66521.78;4919177;28;20042;-64
2022/09/09 03:29:12;;;;;;;28.80;18.35;;;;;;;-145.67;100.00;66521.78;4926525;28;20532;-66
2022/09/09 03:31:39;;;;;;;28.13;17.15;;;;;;;-145.67;100.00;66521.78;4924553;28;20847;-65
2022/09/09 03:34:05;;;;;;;25.20;15.27;;;;;;;-145.67;100.00;66521.78;4924935;28;20042;-65
2022/09/09 03:36:30;;;;;;;32.03;16.65;;;;;;;-145.67;100.00;66521.78;4924176;28;20046;-65
2022/09/09 03:38:59;;;;;;;26.35;16.10;;;;;;;-145.67;100.00;66521.78;4939905;28;20168;-64
2022/09/09 03:41:27;;;;;;;23.20;14.48;;;;;;;-145.67;100.00;66521.78;4939848;28;20035;-66
2022/09/09 03:43:55;;;;;;;22.98;13.90;;;;;;;-145.67;100.00;66521.78;4939462;28;20703;-65
2022/09/09 03:46:24;;;;;;;25.13;15.18;;;;;;;-145.67;100.00;66521.78;4923885;28;20036;-65
2022/09/09 03:48:49;;;;;;;26.13;15.00;;;;;;;-145.67;100.00;66521.78;4924247;28;20051;-65
2022/09/09 03:51:15;;;;;;;24.05;14.85;;;;;;;-145.67;100.00;66521.78;4922588;28;20042;-64
2022/09/09 03:53:41;;;;;;;25.25;14.52;;;;;;;-145.67;100.00;66521.78;4924101;28;20050;-66
2022/09/09 03:56:07;;;;;;;23.73;14.85;;;;;;;-145.67;100.00;66521.78;4939379;28;20996;-64
2022/09/09 03:58:36;;;;;;;24.10;15.30;;;;;;;-145.67;100.00;66521.78;4923997;28;20143;-65
2022/09/09 04:01:08;;;;;;;28.73;16.50;;;;;;;-145.67;100.00;66521.78;4919289;28;20034;-65
2022/09/09 04:03:36;;;;;;;22.45;15.68;;;;;;;-145.67;100.00;66521.78;4924778;28;20457;-65
2022/09/09 04:06:03;;;;;;;21.90;11.80;;;;;;;-145.67;100.00;66521.78;4924260;28;20122;-65
2022/09/09 04:08:31;;;;;;;19.83;11.55;;;;;;;-145.67;100.00;66521.78;4939280;28;20712;-66
2022/09/09 04:10:57;;;;;;;21.52;11.07;;;;;;;-145.67;100.00;66521.78;4939604;28;20063;-65
2022/09/09 04:13:23;;;;;;;21.23;11.98;;;;;;;-145.67;100.00;66521.78;4939585;28;20121;-64
2022/09/09 04:15:56;;;;;;;20.55;12.15;;;;;;;-145.67;100.00;66521.78;4925627;28;20043;-66
2022/09/09 04:18:25;;;;;;;22.02;12.65;;;;;;;-145.67;100.00;66521.78;4939199;28;20035;-64
2022/09/09 04:20:52;;;;;;;19.58;12.55;;;;;;;-145.67;100.00;66521.78;4924849;28;20500;-68
2022/09/09 04:23:21;;;;;;;22.13;13.82;;;;;;;-145.67;100.00;66521.78;4918052;28;20043;-65
2022/09/09 04:25:53;;;;;;;28.58;16.85;;;;;;;-145.67;100.00;66521.78;4902240;28;20635;-65
2022/09/09 04:28:20;;;;;;;28.55;17.70;;;;;;;-145.67;100.00;66521.78;4923969;28;20043;-66
2022/09/09 04:30:46;;;;;;;25.63;16.30;;;;;;;-145.67;100.00;66521.78;4933368;28;20044;-64
2022/09/09 04:33:12;;;;;;;27.15;15.88;;;;;;;-145.67;100.00;66521.78;4923476;28;20032;-64
2022/09/09 04:35:38;;;;;;;26.30;16.52;;;;;;;-145.67;100.00;66521.78;4939061;28;20134;-64
2022/09/09 04:38:04;;;;;;;27.33;17.13;;;;;;;-145.67;100.00;66521.78;4939174;28;20299;-65
2022/09/09 04:40:30;;;;;;;29.00;17.92;;;;;;;-145.67;100.00;66521.78;4924786;28;20039;-67
2022/09/09 04:42:59;;;;;;;28.35;16.98;;;;;;;-145.67;100.00;66521.78;4924215;28;20070;-64
2022/09/09 04:45:26;;;;;;;27.95;17.60;;;;;;;-145.67;100.00;66521.78;4925201;28;20053;-64
2022/09/09 04:47:51;;;;;;;27.13;16.63;;;;;;;-145.67;100.00;66521.78;4924867;28;20953;-65
2022/09/09 04:50:19;;;;;;;24.27;15.93;;;;;;;-145.67;100.00;66521.78;4939139;28;20175;-65
2022/09/09 04:52:44;;;;;;;24.77;16.55;;;;;;;-145.67;100.00;66521.78;4922890;28;20039;-66
2022/09/09 04:55:10;;;;;;;24.67;18.30;;;;;;;-145.67;100.00;66521.78;4922659;28;20031;-64
2022/09/09 04:57:35;;;;;;;28.30;18.95;;;;;;;-145.67;100.00;66521.78;4924269;28;20175;-65
2022/09/09 05:00:01;;;;;;;32.97;20.58;;;;;;;-145.67;100.00;66521.78;4937998;28;20140;-64
2022/09/09 05:02:30;;;;;;;29.45;19.80;;;;;;;-145.67;100.00;66521.78;4925134;28;20035;-66
2022/09/09 05:04:57;;;;;;;35.15;20.42;;;;;;;-145.67;100.00;66521.78;4938552;28;20031;-65
2022/09/09 05:07:23;;;;;;;28.30;19.75;;;;;;;-145.67;100.00;66521.78;4937593;28;20047;-65
2022/09/09 05:09:49;;;;;;;25.60;18.13;;;;;;;-145.67;100.00;66521.78;4922946;28;20043;-64
2022/09/09 05:12:17;;;;;;;29.42;17.55;;;;;;;-145.67;100.00;66521.78;4924338;28;20155;-66
2022/09/09 05:14:43;;;;;;;28.30;18.90;;;;;;;-145.67;100.00;66521.78;4924962;28;20116;-64
2022/09/09 05:17:10;;;;;;;31.88;20.45;;;;;;;-145.67;100.00;66521.78;4937925;28;20116;-64
2022/09/09 05:19:37;;;;;;;29.52;18.70;;;;;;;-145.67;100.00;66521.78;4922062;28;20058;-64
2022/09/09 05:22:04;;;;;;;30.35;18.30;;;;;;;-145.67;100.00;66521.78;4924535;28;20504;-65
2022/09/09 05:24:32;;;;;;;27.15;16.85;;;;;;;-145.67;100.00;66521.78;4923896;28;20140;-64
2022/09/09 05:27:02;;;;;;;27.55;17.60;;;;;;;-145.67;100.00;66521.78;4923959;28;20518;-65
2022/09/09 05:29:28;;;;;;;27.20;15.95;;;;;;;-145.67;100.00;66521.78;4923254;28;20043;-64
2022/09/09 05:31:53;;;;;;;31.35;17.48;;;;;;;-145.67;100.00;66521.78;4938296;28;20578;-63
2022/09/09 05:34:21;;;;;;;24.63;15.98;;;;;;;-145.67;100.00;66521.78;4922800;28;20485;-66
2022/09/09 05:36:47;;;;;;;23.75;13.38;;;;;;;-145.67;100.00;66521.78;4922775;28;20031;-65
2022/09/09 05:39:12;;;;;;;20.08;13.05;;;;;;;-145.67;100.00;66521.78;4917387;28;20423;-65
2022/09/09 05:41:38;;;;;;;20.60;13.93;;;;;;;-145.67;100.00;66521.78;4924168;28;20043;-64
2022/09/09 05:44:06;;;;;;;24.52;13.65;;;;;;;-145.67;100.00;66521.78;4924580;28;20111;-65
2022/09/09 05:46:31;;;;;;;25.65;13.90;;;;;;;-145.67;100.00;66521.78;4923759;28;20436;-64
2022/09/09 05:49:00;;;;;;;19.55;12.35;;;;;;;-145.67;100.00;66521.78;4937781;28;20106;-64
2022/09/09 05:51:27;;;;;;;21.27;12.02;;;;;;;-145.67;100.00;66521.78;4936674;28;20035;-65
2022/09/09 05:53:54;;;;;;;27.33;14.20;;;;;;;-145.67;100.00;66521.78;4936851;28;20035;-65
2022/09/09 05:56:23;;;;;;;20.58;12.15;;;;;;;-145.67;100.00;66521.78;4938722;28;20043;-64
2022/09/09 05:58:49;;;;;;;24.08;12.20;;;;;;;-145.67;100.00;66521.78;4923112;28;20043;-65
2022/09/09 06:01:20;;;;;;;20.38;10.90;;;;;;;-145.67;100.00;66521.78;4937842;28;20043;-65
2022/09/09 06:03:47;;;;;;;22.23;11.93;;;;;;;-145.67;100.00;66521.78;4921476;28;21830;-65
2022/09/09 06:06:15;;;;;;;22.98;11.45;;;;;;;-145.67;100.00;66521.78;4937419;28;20547;-64
2022/09/09 06:08:44;;;;;;;22.67;13.05;;;;;;;-145.67;100.00;66521.78;4921519;28;20097;-64
2022/09/09 06:11:26;;;;;;;20.77;11.70;;;;;;;-145.67;100.00;66521.78;4932522;28;20320;-64
2022/09/09 06:13:53;;;;;;;23.83;13.02;;;;;;;-145.67;100.00;66521.78;4921247;28;20190;-65
2022/09/09 06:16:24;;;;;;;21.15;10.60;;;;;;;-145.67;100.00;66521.78;4937400;28;20042;-65
2022/09/09 06:18:50;;;;;;;19.63;9.98;;;;;;;-145.67;100.00;66521.78;4916517;28;20071;-65
2022/09/09 06:21:38;;;;;;;18.00;9.00;;;;;;;-145.67;100.00;66521.78;4920261;28;20458;-67
2022/09/09 06:24:07;;;;;;;17.25;9.00;;;;;;;-145.67;100.00;66521.78;4921966;28;20071;-64
2022/09/09 06:26:34;;;;;;;16.75;9.30;;;;;;;-145.67;100.00;66521.78;4937397;28;20681;-65
2022/09/09 06:29:03;;;;;;;21.08;9.52;;;;;;;-145.67;100.00;66521.78;4909819;28;20530;-64
2022/09/09 06:31:30;;;;;;;17.45;8.65;;;;;;;-145.67;100.00;66521.78;4936894;28;20032;-64
2022/09/09 06:33:56;;;;;;;16.63;7.63;;;;;;;-145.67;100.00;66521.78;4922793;28;20507;-65
2022/09/09 06:36:23;;;;;;;17.80;8.05;;;;;;;-145.67;100.00;66521.78;4937091;28;20497;-65
2022/09/09 06:38:48;;;;;;;17.58;8.60;;;;;;;-145.67;100.00;66521.78;4921017;28;20101;-65
2022/09/09 06:41:20;;;;;;;16.08;6.65;;;;;;;-145.67;100.00;66521.78;4911939;28;20123;-65
2022/09/09 06:43:45;;;;;;;;;;;;;;;-145.67;100.00;66521.78;4905747;28;21916;-65
2022/09/09 06:46:16;;;;;;;20.38;7.60;;;;;;;-145.67;100.00;66521.78;4938140;28;19915;-65
2022/09/09 06:48:44;;;;;;;16.13;6.97;;;;;;;-145.67;100.00;66521.78;4917808;28;20109;-65
2022/09/09 06:51:11;;;;;;;15.65;7.55;;;;;;;-145.67;100.00;66521.78;4904313;28;20032;-65
2022/09/09 06:53:37;;;;;;;15.32;6.40;;;;;;;-145.67;100.00;66521.78;4924201;28;20070;-65
2022/09/09 06:56:31;;;;;;;16.25;8.13;;;;;;;-145.67;100.00;66521.78;4925022;28;21283;-66
2022/09/09 06:58:59;;;;;;;14.63;7.63;;;;;;;-145.67;100.00;66521.78;4939601;28;20058;-65
2022/09/09 07:01:27;;;;;;;17.75;7.55;;;;;;;-145.67;100.00;66521.78;4908417;28;20229;-65
2022/09/09 07:03:55;;;;;;;17.35;6.70;;;;;;;-145.67;100.00;66521.78;4939730;28;20118;-65
2022/09/09 07:06:24;;;;;;;14.82;7.15;;;;;;;-145.67;100.00;66521.78;4940177;28;20500;-65
2022/09/09 07:08:54;;;;;;;14.50;6.68;;;;;;;-145.67;100.00;66521.78;4924838;28;21006;-66
2022/09/09 07:11:21;;;;;;;13.52;6.70;;;;;;;-145.67;100.00;66521.78;4925174;28;20106;-64
2022/09/09 07:13:47;;;;;;;15.57;7.38;;;;;;;-145.67;100.00;66521.78;4918660;28;20031;-65
2022/09/09 07:16:15;;;;;;;15.27;7.10;;;;;;;-145.67;100.00;66521.78;4918669;28;20515;-65
2022/09/09 07:18:41;;;;;;;20.40;7.07;;;;;;;-145.67;100.00;66521.78;4924146;28;20059;-66
2022/09/09 07:21:08;;;;;;;15.27;6.38;;;;;;;-145.67;100.00;66521.78;4914602;28;20186;-65
2022/09/09 07:23:36;;;;;;;15.23;7.28;;;;;;;-145.67;100.00;66521.78;4919101;28;20131;-64
2022/09/09 07:26:02;;;;;;;18.55;8.40;;;;;;;-145.67;100.00;66521.78;4924193;28;20058;-65
2022/09/09 07:28:30;;;;;;;22.15;7.65;;;;;;;-145.67;100.00;66521.78;4924070;28;20043;-65
2022/09/09 07:31:04;;;;;;;16.70;6.82;;;;;;;-145.67;100.00;66521.78;4925707;28;20043;-65
2022/09/09 07:33:31;;;;;;;25.80;8.20;;;;;;;-145.67;100.00;66521.78;4925558;28;20090;-65
2022/09/09 07:36:05;;;;;;;71.97;12.60;;;;;;;-145.67;100.00;66521.78;4908218;28;20174;-65
2022/09/09 07:38:45;;;;;;;26.50;8.95;;;;;;;-145.67;100.00;66521.78;4925166;28;20070;-64
2022/09/09 07:41:13;;;;;;;17.58;7.90;;;;;;;-145.67;100.00;66521.78;4924145;28;20704;-64
2022/09/09 07:43:40;;;;;;;15.52;7.70;;;;;;;-145.67;100.00;66521.78;4923258;28;20039;-64
2022/09/09 07:46:06;;;;;;;19.77;8.88;;;;;;;-145.67;100.00;66521.78;4940225;28;20174;-64
2022/09/09 07:48:32;;;;;;;16.60;7.63;;;;;;;-145.67;100.00;66521.78;4923447;28;20069;-65
2022/09/09 07:51:11;;;;;;;22.27;8.60;;;;;;;-145.67;100.00;66521.78;4938728;28;20070;-65
2022/09/09 07:53:38;;;;;;;20.73;8.40;;;;;;;-145.67;100.00;66521.78;4918315;28;20035;-64
2022/09/09 07:56:09;;;;;;;21.63;8.40;;;;;;;-145.67;100.00;66521.78;4939387;28;20046;-64
2022/09/09 07:58:38;;;;;;;16.88;7.18;;;;;;;-145.67;100.00;66521.78;4932810;28;20532;-65
2022/09/09 08:01:12;;;;;;;;;;;;;;;-145.67;100.00;66521.78;4922518;28;20468;-64
2022/09/09 08:03:38;;;;;;;17.90;7.13;;;;;;;-145.67;100.00;66521.78;4924849;28;19925;-64
2022/09/09 08:06:06;;;;;;;17.17;7.50;;;;;;;-145.67;100.00;66521.78;4919063;28;20214;-65
2022/09/09 08:08:33;;;;;;;17.48;8.10;;;;;;;-145.67;100.00;66521.78;4895241;28;20299;-64
2022/09/09 08:11:17;;;;;;;16.58;6.97;;;;;;;-145.67;100.00;66521.78;4927324;28;20082;-63
2022/09/09 08:13:43;;;;;;;15.68;6.40;;;;;;;-145.67;100.00;66521.78;4926654;28;20529;-63
2022/09/09 08:16:14;;;;;;;16.45;6.60;;;;;;;-145.67;100.00;66521.78;4906849;28;20039;-64
2022/09/09 08:18:40;;;;;;;14.20;5.65;;;;;;;-145.67;100.00;66521.78;4924292;28;20501;-64
2022/09/09 08:21:12;;;;;;;14.27;6.07;;;;;;;-145.67;100.00;66521.78;4924069;28;20240;-64
2022/09/09 08:23:41;;;;;;;13.25;5.90;;;;;;;-145.67;100.00;66521.78;4932452;28;20032;-65
2022/09/09 08:26:11;;;;;;;11.68;5.80;;;;;;;-145.67;100.00;66521.78;4923188;28;20116;-64
2022/09/09 08:28:39;;;;;;;12.77;5.45;;;;;;;-145.67;100.00;66521.78;4931254;28;20082;-64
2022/09/09 08:31:14;;;;;;;13.20;5.95;;;;;;;-145.67;100.00;66521.78;4923119;28;20334;-65
2022/09/09 08:33:41;;;;;;;18.50;6.78;;;;;;;-145.67;100.00;66521.78;4932933;28;20062;-63
2022/09/09 08:36:09;;;;;;;17.23;7.00;;;;;;;-145.67;100.00;66521.78;4926994;28;20042;-65
2022/09/09 08:38:35;;;;;;;15.48;5.60;;;;;;;-145.67;100.00;66521.78;4931935;28;20110;-65
2022/09/09 08:41:22;;;;;;;15.13;6.22;;;;;;;-145.67;100.00;66521.78;4924188;28;21778;-64
2022/09/09 08:43:50;;;;;;;18.52;7.45;;;;;;;-145.67;100.00;66521.78;4931125;28;20159;-65
2022/09/09 08:46:26;;;;;;;23.52;9.20;;;;;;;-145.67;100.00;66521.78;4922059;28;20555;-63
2022/09/09 08:49:03;;;;;;;22.23;8.88;;;;;;;-145.67;100.00;66521.78;4913911;28;20618;-64
2022/09/09 08:51:30;;;;;;;21.88;7.45;;;;;;;-145.67;100.00;66521.78;4937981;28;20038;-65
2022/09/09 08:54:00;;;;;;;17.13;6.50;;;;;;;-145.67;100.00;66521.78;4938665;28;20527;-63
2022/09/09 08:56:26;;;;;;;21.77;8.82;;;;;;;-145.67;100.00;66521.78;4938234;28;21424;-63
2022/09/09 08:58:56;;;;;;;19.52;6.93;;;;;;;-145.67;100.00;66521.78;4922270;29;20042;-64
2022/09/09 09:01:46;;;;;;;17.58;7.05;;;;;;;-145.67;100.00;66521.78;4933084;28;20065;-64
2022/09/09 09:05:03;;;;;;;12.35;5.93;;;;;;;-145.67;100.00;66521.78;4923357;29;20398;-64
2022/09/09 09:07:32;;;;;;;17.83;5.60;;;;;;;-145.67;100.00;66521.78;4896395;28;20607;-63
2022/09/09 09:10:12;;;;;;;14.88;5.13;;;;;;;-145.67;100.00;66521.78;4933986;28;21968;-64
2022/09/09 09:12:41;;;;;;;13.32;5.30;;;;;;;-145.67;100.00;66521.78;4923272;28;20047;-63
2022/09/09 09:15:18;;;;;;;14.23;5.65;;;;;;;-145.67;100.00;66521.78;4920516;28;20063;-65
2022/09/09 09:17:43;;;;;;;20.40;6.82;;;;;;;-145.67;100.00;66521.78;4923047;28;20070;-64
2022/09/09 09:20:14;;;;;;;16.85;5.88;;;;;;;-145.67;100.00;66521.78;4914334;28;20027;-63
2022/09/09 09:22:48;;;;;;;11.73;4.45;;;;;;;-145.67;100.00;66521.78;4932477;28;20040;-64
2022/09/09 09:25:21;;;;;;;11.07;4.57;;;;;;;-145.67;100.00;66521.78;4917200;28;20540;-64
2022/09/09 09:27:51;;;;;;;16.17;6.20;;;;;;;-145.67;100.00;66521.78;4916268;28;22024;-65
2022/09/09 09:30:22;;;;;;;16.70;5.93;;;;;;;-145.67;100.00;66521.78;4923367;28;20531;-64
2022/09/09 09:33:19;;;;;;;11.63;5.38;;;;;;;-145.67;100.00;66521.78;4922645;29;20035;-64
2022/09/09 09:35:45;;;;;;;13.50;5.63;;;;;;;-145.67;100.00;66521.78;4881530;28;20167;-68
2022/09/09 09:38:19;;;;;;;12.27;5.32;;;;;;;-145.67;100.00;66521.78;4935010;28;20031;-64
2022/09/09 09:40:57;;;;;;;13.18;4.80;;;;;;;-145.67;100.00;66521.78;4916511;28;20076;-63
2022/09/09 09:43:34;;;;;;;17.75;7.55;;;;;;;-145.67;100.00;66521.78;4921827;29;20043;-64
2022/09/09 09:46:00;;;;;;;12.45;5.78;;;;;;;-145.67;100.00;66521.78;4934011;28;20042;-64
2022/09/09 09:48:28;;;;;;;13.43;6.32;;;;;;;-145.67;100.00;66521.78;4937160;28;20047;-65
2022/09/09 09:51:03;;;;;;;13.63;6.22;;;;;;;-145.67;100.00;66521.78;4916606;28;20138;-64
2022/09/09 09:53:33;;;;;;;12.02;5.15;;;;;;;-145.67;100.00;66521.78;4917352;28;20401;-64
2022/09/09 09:56:01;;;;;;;15.70;5.90;;;;;;;-145.67;100.00;66521.78;4922661;28;20051;-65
2022/09/09 09:58:33;;;;;;;14.85;5.60;;;;;;;-145.67;100.00;66521.78;4916486;28;20043;-64
2022/09/09 10:01:01;;;;;;;14.70;6.10;;;;;;;-145.67;100.00;66521.78;4916547;28;20116;-64
2022/09/09 10:03:30;;;;;;;10.40;4.95;;;;;;;-145.67;100.00;66521.78;4900557;28;20042;-64
2022/09/09 10:05:58;;;;;;;12.18;5.10;;;;;;;-145.67;100.00;66521.78;4922264;28;20539;-63
2022/09/09 10:08:25;;;;;;;13.40;6.20;;;;;;;-145.67;100.00;66521.78;4922028;29;20572;-65
2022/09/09 10:11:09;;;;;;;17.00;5.90;;;;;;;-145.67;100.00;66521.78;4922786;29;20067;-64
2022/09/09 10:13:54;;;;;;;12.43;5.70;;;;;;;-145.67;100.00;66521.78;4916092;29;20035;-66
2022/09/09 10:16:46;;;;;;;13.85;5.18;;;;;;;-145.67;100.00;66521.78;4920906;28;20035;-64
2022/09/09 10:19:42;;;;;;;11.40;5.22;;;;;;;-145.67;100.00;66521.78;4922997;28;20153;-63
2022/09/09 10:22:19;;;;;;;12.63;4.80;;;;;;;-145.67;100.00;66521.78;4894699;28;20058;-62
2022/09/09 10:24:57;;;;;;;12.75;4.40;;;;;;;-145.67;100.00;66521.78;4926177;29;20047;-63
2022/09/09 10:27:53;;;;;;;15.98;6.55;;;;;;;-145.67;100.00;66521.78;4926119;29;20038;-63
2022/09/09 10:30:33;;;;;;;9.93;4.68;;;;;;;-145.67;100.00;66521.78;4923637;28;20043;-64
2022/09/09 10:33:07;;;;;;;10.27;3.97;;;;;;;-145.67;100.00;66521.78;4926737;29;20231;-65
2022/09/09 10:35:48;;;;;;;13.02;5.30;;;;;;;-145.67;100.00;66521.78;4926078;28;20060;-66
2022/09/09 10:38:17;;;;;;;14.20;5.50;;;;;;;-145.67;100.00;66521.78;4923548;28;20738;-66
2022/09/09 10:40:44;;;;;;;14.68;6.05;;;;;;;-145.67;100.00;66521.78;4920031;28;20090;-65
2022/09/09 10:43:23;;;;;;;13.07;5.78;;;;;;;-145.67;100.00;66521.78;4939628;28;20035;-63
2022/09/09 10:46:03;;;;;;;13.05;5.82;;;;;;;-145.67;100.00;66521.78;4920903;28;20027;-64
2022/09/09 10:48:56;;;;;;;11.18;4.72;;;;;;;-145.67;100.00;66521.78;4921107;28;20338;-65
2022/09/09 10:51:36;;;;;;;12.90;5.15;;;;;;;-145.67;100.00;66521.78;4926249;29;20420;-64
2022/09/09 10:54:20;;;;;;;10.15;4.07;;;;;;;-145.67;100.00;66521.78;4926744;28;20066;-64
2022/09/09 10:56:56;;;;;;;12.20;4.78;;;;;;;-145.67;100.00;66521.78;4919022;28;20055;-64
2022/09/09 10:59:33;;;;;;;13.75;5.03;;;;;;;-145.67;100.00;66521.78;4928573;28;20031;-64
2022/09/09 11:02:00;;;;;;;15.82;5.60;;;;;;;-145.67;100.00;66521.78;4925825;28;20062;-64
2022/09/09 11:04:43;;;;;;;12.38;5.07;;;;;;;-145.67;100.00;66521.78;4927164;28;20043;-65
2022/09/09 11:07:15;;;;;;;11.70;4.72;;;;;;;-145.67;100.00;66521.78;4925247;28;20042;-64
2022/09/09 11:09:49;;;;;;;15.20;6.40;;;;;;;-145.67;100.00;66521.78;4928550;28;20469;-64
2022/09/09 11:12:20;;;;;;;19.38;7.68;;;;;;;-145.67;100.00;66521.78;4903659;28;20531;-64
2022/09/09 11:14:54;;;;;;;15.00;5.03;;;;;;;-145.67;100.00;66521.78;4904282;28;20174;-64
2022/09/09 11:17:22;;;;;;;14.73;5.78;;;;;;;-145.67;100.00;66521.78;4920087;28;20559;-65